sensor_id;sensor_type;location;lat;lon;timestamp;P1;durP1;ratioP1;P2;durP2;ratioP2
55031;SDS011;40928;51.076;7.950;2024-02-04T00:00:44;17.63;;;8.73;;
55031;SDS011;40928;51.076;7.950;2024-02-04T00:03:09;14.27;;;8.63;;
55031;SDS011;40928;51.076;7.950;2024-02-04T00:05:35;12.95;;;8.05;;
55031;SDS011;40928;51.076;7.950;2024-02-04T00:08:01;15.43;;;8.07;;
55031;SDS011;40928;51.076;7.950;2024-02-04T00:10:27;12.23;;;7.97;;
55031;SDS011;40928;51.076;7.950;2024-02-04T00:12:53;12.85;;;7.45;;
55031;SDS011;40928;51.076;7.950;2024-02-04T00:15:19;13.07;;;7.80;;
55031;SDS011;40928;51.076;7.950;2024-02-04T00:17:44;10.73;;;6.40;;
55031;SDS011;40928;51.076;7.950;2024-02-04T00:20:10;11.38;;;5.53;;
55031;SDS011;40928;51.076;7.950;2024-02-04T00:22:35;8.77;;;5.32;;
55031;SDS011;40928;51.076;7.950;2024-02-04T00:25:01;10.23;;;5.93;;
55031;SDS011;40928;51.076;7.950;2024-02-04T00:27:32;9.10;;;5.97;;
55031;SDS011;40928;51.076;7.950;2024-02-04T00:29:58;9.48;;;5.90;;
55031;SDS011;40928;51.076;7.950;2024-02-04T00:32:24;9.55;;;6.00;;
55031;SDS011;40928;51.076;7.950;2024-02-04T00:34:51;11.35;;;5.55;;
55031;SDS011;40928;51.076;7.950;2024-02-04T00:37:16;12.00;;;5.43;;
55031;SDS011;40928;51.076;7.950;2024-02-04T00:39:42;11.95;;;5.95;;
55031;SDS011;40928;51.076;7.950;2024-02-04T00:42:07;11.07;;;5.13;;
55031;SDS011;40928;51.076;7.950;2024-02-04T00:44:33;8.52;;;5.45;;
55031;SDS011;40928;51.076;7.950;2024-02-04T00:46:58;8.77;;;5.03;;
55031;SDS011;40928;51.076;7.950;2024-02-04T00:49:24;8.57;;;5.07;;
55031;SDS011;40928;51.076;7.950;2024-02-04T00:51:51;7.65;;;4.32;;
55031;SDS011;40928;51.076;7.950;2024-02-04T00:54:17;8.20;;;4.00;;
55031;SDS011;40928;51.076;7.950;2024-02-04T00:56:42;7.97;;;5.00;;
55031;SDS011;40928;51.076;7.950;2024-02-04T00:59:08;8.35;;;5.05;;
55031;SDS011;40928;51.076;7.950;2024-02-04T01:01:34;10.02;;;5.15;;
55031;SDS011;40928;51.076;7.950;2024-02-04T01:04:01;10.57;;;5.22;;
55031;SDS011;40928;51.076;7.950;2024-02-04T01:06:27;10.52;;;6.60;;
55031;SDS011;40928;51.076;7.950;2024-02-04T01:08:55;9.43;;;6.35;;
55031;SDS011;40928;51.076;7.950;2024-02-04T01:11:24;8.18;;;6.22;;
55031;SDS011;40928;51.076;7.950;2024-02-04T01:13:49;8.10;;;6.03;;
55031;SDS011;40928;51.076;7.950;2024-02-04T01:16:15;15.30;;;6.75;;
55031;SDS011;40928;51.076;7.950;2024-02-04T01:18:41;8.93;;;6.13;;
55031;SDS011;40928;51.076;7.950;2024-02-04T01:21:07;8.40;;;5.65;;
55031;SDS011;40928;51.076;7.950;2024-02-04T01:23:34;8.68;;;5.20;;
55031;SDS011;40928;51.076;7.950;2024-02-04T01:26:01;7.95;;;5.25;;
55031;SDS011;40928;51.076;7.950;2024-02-04T01:28:27;6.50;;;4.75;;
55031;SDS011;40928;51.076;7.950;2024-02-04T01:30:52;7.75;;;5.53;;
55031;SDS011;40928;51.076;7.950;2024-02-04T01:33:18;8.65;;;5.38;;
55031;SDS011;40928;51.076;7.950;2024-02-04T01:35:43;7.05;;;5.35;;
55031;SDS011;40928;51.076;7.950;2024-02-04T01:38:09;6.18;;;4.68;;
55031;SDS011;40928;51.076;7.950;2024-02-04T01:40:34;6.72;;;4.30;;
55031;SDS011;40928;51.076;7.950;2024-02-04T01:42:59;6.57;;;3.92;;
55031;SDS011;40928;51.076;7.950;2024-02-04T01:45:25;4.90;;;3.63;;
55031;SDS011;40928;51.076;7.950;2024-02-04T01:47:50;4.60;;;3.42;;
55031;SDS011;40928;51.076;7.950;2024-02-04T01:50:18;5.57;;;3.70;;
55031;SDS011;40928;51.076;7.950;2024-02-04T01:52:43;5.75;;;3.65;;
55031;SDS011;40928;51.076;7.950;2024-02-04T01:55:10;3.47;;;2.67;;
55031;SDS011;40928;51.076;7.950;2024-02-04T01:57:36;5.13;;;2.83;;
55031;SDS011;40928;51.076;7.950;2024-02-04T02:00:03;2.63;;;2.00;;
55031;SDS011;40928;51.076;7.950;2024-02-04T02:02:31;2.53;;;1.65;;
55031;SDS011;40928;51.076;7.950;2024-02-04T02:04:59;1.08;;;0.98;;
55031;SDS011;40928;51.076;7.950;2024-02-04T02:07:25;1.15;;;0.95;;
55031;SDS011;40928;51.076;7.950;2024-02-04T02:09:52;1.63;;;0.85;;
55031;SDS011;40928;51.076;7.950;2024-02-04T02:12:33;1.05;;;0.68;;
55031;SDS011;40928;51.076;7.950;2024-02-04T02:17:55;0.77;;;0.50;;
55031;SDS011;40928;51.076;7.950;2024-02-04T02:20:30;0.60;;;0.43;;
55031;SDS011;40928;51.076;7.950;2024-02-04T02:23:19;0.40;;;0.25;;
55031;SDS011;40928;51.076;7.950;2024-02-04T02:25:47;0.47;;;0.30;;
55031;SDS011;40928;51.076;7.950;2024-02-04T02:28:15;0.55;;;0.40;;
55031;SDS011;40928;51.076;7.950;2024-02-04T02:30:41;0.47;;;0.40;;
55031;SDS011;40928;51.076;7.950;2024-02-04T02:33:06;1.08;;;0.50;;
55031;SDS011;40928;51.076;7.950;2024-02-04T02:35:34;0.82;;;0.60;;
55031;SDS011;40928;51.076;7.950;2024-02-04T02:38:33;1.10;;;0.63;;
55031;SDS011;40928;51.076;7.950;2024-02-04T02:40:59;0.43;;;0.40;;
55031;SDS011;40928;51.076;7.950;2024-02-04T02:43:29;1.33;;;1.00;;
55031;SDS011;40928;51.076;7.950;2024-02-04T02:46:00;0.45;;;0.45;;
55031;SDS011;40928;51.076;7.950;2024-02-04T02:48:34;0.43;;;0.27;;
55031;SDS011;40928;51.076;7.950;2024-02-04T02:51:04;1.48;;;0.20;;
55031;SDS011;40928;51.076;7.950;2024-02-04T02:53:35;0.63;;;0.30;;
55031;SDS011;40928;51.076;7.950;2024-02-04T02:56:07;2.58;;;0.20;;
55031;SDS011;40928;51.076;7.950;2024-02-04T02:58:38;0.77;;;0.60;;
55031;SDS011;40928;51.076;7.950;2024-02-04T03:01:05;0.73;;;0.40;;
55031;SDS011;40928;51.076;7.950;2024-02-04T03:03:33;1.00;;;0.10;;
55031;SDS011;40928;51.076;7.950;2024-02-04T03:06:05;0.47;;;0.10;;
55031;SDS011;40928;51.076;7.950;2024-02-04T03:08:31;0.10;;;0.10;;
55031;SDS011;40928;51.076;7.950;2024-02-04T03:10:57;0.45;;;0.20;;
55031;SDS011;40928;51.076;7.950;2024-02-04T03:13:23;0.95;;;0.10;;
55031;SDS011;40928;51.076;7.950;2024-02-04T03:15:48;0.10;;;0.10;;
55031;SDS011;40928;51.076;7.950;2024-02-04T03:18:14;0.10;;;0.10;;
55031;SDS011;40928;51.076;7.950;2024-02-04T03:20:40;0.43;;;0.20;;
55031;SDS011;40928;51.076;7.950;2024-02-04T03:23:05;0.30;;;0.20;;
55031;SDS011;40928;51.076;7.950;2024-02-04T03:25:31;0.57;;;0.10;;
55031;SDS011;40928;51.076;7.950;2024-02-04T03:27:57;0.88;;;0.10;;
55031;SDS011;40928;51.076;7.950;2024-02-04T03:30:23;0.75;;;0.20;;
55031;SDS011;40928;51.076;7.950;2024-02-04T03:32:48;0.50;;;0.30;;
55031;SDS011;40928;51.076;7.950;2024-02-04T03:35:14;0.20;;;0.20;;
55031;SDS011;40928;51.076;7.950;2024-02-04T03:37:40;0.40;;;0.17;;
55031;SDS011;40928;51.076;7.950;2024-02-04T03:40:05;0.20;;;0.20;;
55031;SDS011;40928;51.076;7.950;2024-02-04T03:42:31;0.15;;;0.15;;
55031;SDS011;40928;51.076;7.950;2024-02-04T03:44:57;2.70;;;0.22;;
55031;SDS011;40928;51.076;7.950;2024-02-04T03:47:23;0.40;;;0.22;;
55031;SDS011;40928;51.076;7.950;2024-02-04T03:49:48;0.30;;;0.20;;
55031;SDS011;40928;51.076;7.950;2024-02-04T03:52:15;0.50;;;0.40;;
55031;SDS011;40928;51.076;7.950;2024-02-04T03:54:41;0.60;;;0.45;;
55031;SDS011;40928;51.076;7.950;2024-02-04T03:57:07;0.55;;;0.32;;
55031;SDS011;40928;51.076;7.950;2024-02-04T03:59:34;2.08;;;0.45;;
55031;SDS011;40928;51.076;7.950;2024-02-04T04:01:59;3.08;;;1.05;;
55031;SDS011;40928;51.076;7.950;2024-02-04T04:04:25;0.80;;;0.52;;
55031;SDS011;40928;51.076;7.950;2024-02-04T04:06:51;0.77;;;0.50;;
55031;SDS011;40928;51.076;7.950;2024-02-04T04:09:18;0.50;;;0.30;;
55031;SDS011;40928;51.076;7.950;2024-02-04T04:11:44;0.77;;;0.57;;
55031;SDS011;40928;51.076;7.950;2024-02-04T04:14:10;0.60;;;0.43;;
55031;SDS011;40928;51.076;7.950;2024-02-04T04:16:35;1.60;;;1.08;;
55031;SDS011;40928;51.076;7.950;2024-02-04T04:19:01;1.48;;;1.10;;
55031;SDS011;40928;51.076;7.950;2024-02-04T04:21:27;1.80;;;1.08;;
55031;SDS011;40928;51.076;7.950;2024-02-04T04:23:53;2.08;;;1.20;;
55031;SDS011;40928;51.076;7.950;2024-02-04T04:26:19;1.70;;;1.23;;
55031;SDS011;40928;51.076;7.950;2024-02-04T04:28:44;1.73;;;1.08;;
55031;SDS011;40928;51.076;7.950;2024-02-04T04:31:11;1.48;;;1.10;;
55031;SDS011;40928;51.076;7.950;2024-02-04T04:33:37;1.50;;;1.10;;
55031;SDS011;40928;51.076;7.950;2024-02-04T04:36:03;4.45;;;0.90;;
55031;SDS011;40928;51.076;7.950;2024-02-04T04:38:29;0.63;;;0.45;;
55031;SDS011;40928;51.076;7.950;2024-02-04T04:40:54;0.70;;;0.60;;
55031;SDS011;40928;51.076;7.950;2024-02-04T04:43:20;1.52;;;0.88;;
55031;SDS011;40928;51.076;7.950;2024-02-04T04:45:46;0.70;;;0.52;;
55031;SDS011;40928;51.076;7.950;2024-02-04T04:48:11;1.15;;;0.70;;
55031;SDS011;40928;51.076;7.950;2024-02-04T04:50:37;0.88;;;0.70;;
55031;SDS011;40928;51.076;7.950;2024-02-04T04:53:03;1.08;;;0.80;;
55031;SDS011;40928;51.076;7.950;2024-02-04T04:55:28;0.88;;;0.75;;
55031;SDS011;40928;51.076;7.950;2024-02-04T04:57:54;1.02;;;0.63;;
55031;SDS011;40928;51.076;7.950;2024-02-04T05:00:23;0.70;;;0.70;;
55031;SDS011;40928;51.076;7.950;2024-02-04T05:02:51;1.20;;;0.80;;
55031;SDS011;40928;51.076;7.950;2024-02-04T05:05:20;0.90;;;0.70;;
55031;SDS011;40928;51.076;7.950;2024-02-04T05:07:46;1.95;;;0.90;;
55031;SDS011;40928;51.076;7.950;2024-02-04T05:10:12;2.78;;;2.00;;
55031;SDS011;40928;51.076;7.950;2024-02-04T05:12:37;3.78;;;2.47;;
55031;SDS011;40928;51.076;7.950;2024-02-04T05:15:06;5.50;;;2.90;;
55031;SDS011;40928;51.076;7.950;2024-02-04T05:17:33;3.78;;;2.58;;
55031;SDS011;40928;51.076;7.950;2024-02-04T05:19:58;5.60;;;3.13;;
55031;SDS011;40928;51.076;7.950;2024-02-04T05:22:24;6.20;;;4.00;;
55031;SDS011;40928;51.076;7.950;2024-02-04T05:24:50;8.48;;;4.07;;
55031;SDS011;40928;51.076;7.950;2024-02-04T05:27:15;7.40;;;4.15;;
55031;SDS011;40928;51.076;7.950;2024-02-04T05:29:41;5.95;;;4.00;;
55031;SDS011;40928;51.076;7.950;2024-02-04T05:32:07;8.70;;;5.07;;
55031;SDS011;40928;51.076;7.950;2024-02-04T05:34:33;9.40;;;5.18;;
55031;SDS011;40928;51.076;7.950;2024-02-04T05:36:59;11.52;;;5.65;;
55031;SDS011;40928;51.076;7.950;2024-02-04T05:39:25;11.80;;;5.50;;
55031;SDS011;40928;51.076;7.950;2024-02-04T05:41:51;8.60;;;5.45;;
55031;SDS011;40928;51.076;7.950;2024-02-04T05:44:18;11.20;;;6.25;;
55031;SDS011;40928;51.076;7.950;2024-02-04T05:46:43;14.65;;;6.25;;
55031;SDS011;40928;51.076;7.950;2024-02-04T05:49:09;12.35;;;6.45;;
55031;SDS011;40928;51.076;7.950;2024-02-04T05:51:38;12.82;;;5.53;;
55031;SDS011;40928;51.076;7.950;2024-02-04T05:54:05;11.15;;;6.00;;
55031;SDS011;40928;51.076;7.950;2024-02-04T05:56:38;12.38;;;6.70;;
55031;SDS011;40928;51.076;7.950;2024-02-04T05:59:05;12.15;;;6.38;;
55031;SDS011;40928;51.076;7.950;2024-02-04T06:01:32;8.63;;;5.88;;
55031;SDS011;40928;51.076;7.950;2024-02-04T06:04:01;11.13;;;6.15;;
55031;SDS011;40928;51.076;7.950;2024-02-04T06:06:27;10.52;;;6.82;;
55031;SDS011;40928;51.076;7.950;2024-02-04T06:08:53;10.45;;;5.88;;
55031;SDS011;40928;51.076;7.950;2024-02-04T06:11:18;9.05;;;5.85;;
55031;SDS011;40928;51.076;7.950;2024-02-04T06:13:44;9.35;;;4.97;;
55031;SDS011;40928;51.076;7.950;2024-02-04T06:16:10;9.52;;;5.90;;
55031;SDS011;40928;51.076;7.950;2024-02-04T06:18:39;9.63;;;5.60;;
55031;SDS011;40928;51.076;7.950;2024-02-04T06:21:05;14.38;;;6.53;;
55031;SDS011;40928;51.076;7.950;2024-02-04T06:23:32;12.43;;;6.82;;
55031;SDS011;40928;51.076;7.950;2024-02-04T06:25:57;8.13;;;5.13;;
55031;SDS011;40928;51.076;7.950;2024-02-04T06:28:26;11.73;;;6.65;;
55031;SDS011;40928;51.076;7.950;2024-02-04T06:30:57;9.95;;;5.78;;
55031;SDS011;40928;51.076;7.950;2024-02-04T06:33:23;12.93;;;6.38;;
55031;SDS011;40928;51.076;7.950;2024-02-04T06:35:50;13.38;;;6.30;;
55031;SDS011;40928;51.076;7.950;2024-02-04T06:38:16;13.98;;;6.63;;
55031;SDS011;40928;51.076;7.950;2024-02-04T06:40:42;10.80;;;5.38;;
55031;SDS011;40928;51.076;7.950;2024-02-04T06:43:07;11.43;;;5.60;;
55031;SDS011;40928;51.076;7.950;2024-02-04T06:45:33;11.82;;;6.43;;
55031;SDS011;40928;51.076;7.950;2024-02-04T06:48:00;10.48;;;5.93;;
55031;SDS011;40928;51.076;7.950;2024-02-04T06:50:26;8.40;;;5.43;;
55031;SDS011;40928;51.076;7.950;2024-02-04T06:52:52;10.60;;;6.55;;
55031;SDS011;40928;51.076;7.950;2024-02-04T06:55:17;11.35;;;6.32;;
55031;SDS011;40928;51.076;7.950;2024-02-04T06:57:43;9.60;;;6.03;;
55031;SDS011;40928;51.076;7.950;2024-02-04T07:00:09;9.85;;;6.18;;
55031;SDS011;40928;51.076;7.950;2024-02-04T07:02:37;9.65;;;5.40;;
55031;SDS011;40928;51.076;7.950;2024-02-04T07:05:03;8.10;;;5.32;;
55031;SDS011;40928;51.076;7.950;2024-02-04T07:07:29;10.55;;;5.60;;
55031;SDS011;40928;51.076;7.950;2024-02-04T07:09:55;9.73;;;6.13;;
55031;SDS011;40928;51.076;7.950;2024-02-04T07:12:22;9.80;;;5.68;;
55031;SDS011;40928;51.076;7.950;2024-02-04T07:14:48;13.00;;;6.97;;
55031;SDS011;40928;51.076;7.950;2024-02-04T07:17:14;16.65;;;6.90;;
55031;SDS011;40928;51.076;7.950;2024-02-04T07:19:40;15.00;;;7.57;;
55031;SDS011;40928;51.076;7.950;2024-02-04T07:22:05;11.52;;;6.25;;
55031;SDS011;40928;51.076;7.950;2024-02-04T07:24:31;16.17;;;8.23;;
55031;SDS011;40928;51.076;7.950;2024-02-04T07:26:57;13.50;;;7.65;;
55031;SDS011;40928;51.076;7.950;2024-02-04T07:29:23;13.45;;;7.68;;
55031;SDS011;40928;51.076;7.950;2024-02-04T07:31:49;14.30;;;8.32;;
55031;SDS011;40928;51.076;7.950;2024-02-04T07:34:14;12.63;;;8.02;;
55031;SDS011;40928;51.076;7.950;2024-02-04T07:36:40;10.45;;;6.78;;
55031;SDS011;40928;51.076;7.950;2024-02-04T07:39:05;12.70;;;7.20;;
55031;SDS011;40928;51.076;7.950;2024-02-04T07:41:31;10.23;;;6.88;;
55031;SDS011;40928;51.076;7.950;2024-02-04T07:43:57;15.90;;;6.90;;
55031;SDS011;40928;51.076;7.950;2024-02-04T07:46:23;11.40;;;6.80;;
55031;SDS011;40928;51.076;7.950;2024-02-04T07:48:49;11.38;;;6.10;;
55031;SDS011;40928;51.076;7.950;2024-02-04T07:51:14;9.55;;;5.50;;
55031;SDS011;40928;51.076;7.950;2024-02-04T07:53:40;7.35;;;4.53;;
55031;SDS011;40928;51.076;7.950;2024-02-04T07:56:05;9.40;;;4.22;;
55031;SDS011;40928;51.076;7.950;2024-02-04T07:58:36;9.05;;;4.35;;
55031;SDS011;40928;51.076;7.950;2024-02-04T08:01:01;5.85;;;3.67;;
55031;SDS011;40928;51.076;7.950;2024-02-04T08:03:29;7.75;;;3.78;;
55031;SDS011;40928;51.076;7.950;2024-02-04T08:05:54;6.10;;;3.63;;
55031;SDS011;40928;51.076;7.950;2024-02-04T08:08:20;5.95;;;3.90;;
55031;SDS011;40928;51.076;7.950;2024-02-04T08:10:46;6.05;;;3.05;;
55031;SDS011;40928;51.076;7.950;2024-02-04T08:13:12;8.63;;;3.13;;
55031;SDS011;40928;51.076;7.950;2024-02-04T08:15:38;3.10;;;1.85;;
55031;SDS011;40928;51.076;7.950;2024-02-04T08:18:03;3.45;;;1.90;;
55031;SDS011;40928;51.076;7.950;2024-02-04T08:20:29;3.65;;;1.90;;
55031;SDS011;40928;51.076;7.950;2024-02-04T08:22:55;4.18;;;2.10;;
55031;SDS011;40928;51.076;7.950;2024-02-04T08:25:20;2.95;;;1.83;;
55031;SDS011;40928;51.076;7.950;2024-02-04T08:27:46;1.90;;;1.38;;
55031;SDS011;40928;51.076;7.950;2024-02-04T08:30:12;1.70;;;1.30;;
55031;SDS011;40928;51.076;7.950;2024-02-04T08:32:38;1.42;;;0.80;;
55031;SDS011;40928;51.076;7.950;2024-02-04T08:35:04;1.25;;;0.80;;
55031;SDS011;40928;51.076;7.950;2024-02-04T08:37:31;1.27;;;0.60;;
55031;SDS011;40928;51.076;7.950;2024-02-04T08:39:58;1.15;;;0.70;;
55031;SDS011;40928;51.076;7.950;2024-02-04T08:42:24;1.00;;;0.65;;
55031;SDS011;40928;51.076;7.950;2024-02-04T08:44:49;1.38;;;0.70;;
55031;SDS011;40928;51.076;7.950;2024-02-04T08:47:15;0.88;;;0.70;;
55031;SDS011;40928;51.076;7.950;2024-02-04T08:49:42;0.90;;;0.60;;
55031;SDS011;40928;51.076;7.950;2024-02-04T08:52:08;0.65;;;0.43;;
55031;SDS011;40928;51.076;7.950;2024-02-04T08:54:35;0.90;;;0.73;;
55031;SDS011;40928;51.076;7.950;2024-02-04T08:57:01;0.80;;;0.45;;
55031;SDS011;40928;51.076;7.950;2024-02-04T08:59:26;0.85;;;0.60;;
55031;SDS011;40928;51.076;7.950;2024-02-04T09:01:52;0.70;;;0.40;;
55031;SDS011;40928;51.076;7.950;2024-02-04T09:04:18;0.82;;;0.60;;
55031;SDS011;40928;51.076;7.950;2024-02-04T09:06:44;0.90;;;0.70;;
55031;SDS011;40928;51.076;7.950;2024-02-04T09:09:10;0.63;;;0.60;;
55031;SDS011;40928;51.076;7.950;2024-02-04T09:11:36;0.85;;;0.50;;
55031;SDS011;40928;51.076;7.950;2024-02-04T09:14:01;1.23;;;0.77;;
55031;SDS011;40928;51.076;7.950;2024-02-04T09:16:29;0.80;;;0.60;;
55031;SDS011;40928;51.076;7.950;2024-02-04T09:18:55;1.73;;;0.70;;
55031;SDS011;40928;51.076;7.950;2024-02-04T09:21:21;0.75;;;0.52;;
55031;SDS011;40928;51.076;7.950;2024-02-04T09:23:48;0.60;;;0.60;;
55031;SDS011;40928;51.076;7.950;2024-02-04T09:26:14;1.35;;;0.90;;
55031;SDS011;40928;51.076;7.950;2024-02-04T09:28:47;2.10;;;1.10;;
55031;SDS011;40928;51.076;7.950;2024-02-04T09:31:15;0.93;;;0.80;;
55031;SDS011;40928;51.076;7.950;2024-02-04T09:33:41;1.50;;;1.25;;
55031;SDS011;40928;51.076;7.950;2024-02-04T09:36:07;1.35;;;0.90;;
55031;SDS011;40928;51.076;7.950;2024-02-04T09:38:33;1.17;;;0.65;;
55031;SDS011;40928;51.076;7.950;2024-02-04T09:41:01;1.00;;;0.68;;
55031;SDS011;40928;51.076;7.950;2024-02-04T09:43:33;0.70;;;0.70;;
55031;SDS011;40928;51.076;7.950;2024-02-04T09:46:00;0.85;;;0.38;;
55031;SDS011;40928;51.076;7.950;2024-02-04T09:48:26;0.98;;;0.73;;
55031;SDS011;40928;51.076;7.950;2024-02-04T09:50:57;0.70;;;0.60;;
55031;SDS011;40928;51.076;7.950;2024-02-04T09:53:26;0.82;;;0.57;;
55031;SDS011;40928;51.076;7.950;2024-02-04T09:56:01;1.27;;;0.73;;
55031;SDS011;40928;51.076;7.950;2024-02-04T09:58:29;1.70;;;1.13;;
55031;SDS011;40928;51.076;7.950;2024-02-04T10:00:55;5.07;;;1.42;;
55031;SDS011;40928;51.076;7.950;2024-02-04T10:03:21;2.20;;;1.52;;
55031;SDS011;40928;51.076;7.950;2024-02-04T10:05:50;1.80;;;1.30;;
55031;SDS011;40928;51.076;7.950;2024-02-04T10:08:19;2.60;;;1.60;;
55031;SDS011;40928;51.076;7.950;2024-02-04T10:10:46;2.95;;;1.58;;
55031;SDS011;40928;51.076;7.950;2024-02-04T10:13:13;3.10;;;1.60;;
55031;SDS011;40928;51.076;7.950;2024-02-04T10:15:38;4.93;;;1.63;;
55031;SDS011;40928;51.076;7.950;2024-02-04T10:18:04;3.05;;;2.13;;
55031;SDS011;40928;51.076;7.950;2024-02-04T10:20:34;3.08;;;1.83;;
55031;SDS011;40928;51.076;7.950;2024-02-04T10:23:00;2.67;;;1.73;;
55031;SDS011;40928;51.076;7.950;2024-02-04T10:25:26;1.13;;;0.95;;
55031;SDS011;40928;51.076;7.950;2024-02-04T10:27:52;1.95;;;1.10;;
55031;SDS011;40928;51.076;7.950;2024-02-04T10:30:20;1.35;;;1.05;;
55031;SDS011;40928;51.076;7.950;2024-02-04T10:32:47;2.05;;;1.17;;
55031;SDS011;40928;51.076;7.950;2024-02-04T10:35:16;1.65;;;1.00;;
55031;SDS011;40928;51.076;7.950;2024-02-04T10:37:44;1.65;;;1.15;;
55031;SDS011;40928;51.076;7.950;2024-02-04T10:40:10;1.35;;;0.80;;
55031;SDS011;40928;51.076;7.950;2024-02-04T10:42:36;2.60;;;0.80;;
55031;SDS011;40928;51.076;7.950;2024-02-04T10:45:04;3.40;;;0.82;;
55031;SDS011;40928;51.076;7.950;2024-02-04T10:47:34;0.80;;;0.60;;
55031;SDS011;40928;51.076;7.950;2024-02-04T10:50:03;0.82;;;0.65;;
55031;SDS011;40928;51.076;7.950;2024-02-04T10:52:38;0.85;;;0.60;;
55031;SDS011;40928;51.076;7.950;2024-02-04T10:55:07;0.95;;;0.70;;
55031;SDS011;40928;51.076;7.950;2024-02-04T10:57:37;1.55;;;0.80;;
55031;SDS011;40928;51.076;7.950;2024-02-04T11:00:04;1.25;;;0.80;;
55031;SDS011;40928;51.076;7.950;2024-02-04T11:02:36;2.40;;;0.90;;
55031;SDS011;40928;51.076;7.950;2024-02-04T11:05:03;1.00;;;0.80;;
55031;SDS011;40928;51.076;7.950;2024-02-04T11:07:33;1.70;;;1.02;;
55031;SDS011;40928;51.076;7.950;2024-02-04T11:10:02;1.10;;;0.98;;
55031;SDS011;40928;51.076;7.950;2024-02-04T11:12:28;1.95;;;1.60;;
55031;SDS011;40928;51.076;7.950;2024-02-04T11:15:00;1.98;;;1.40;;
55031;SDS011;40928;51.076;7.950;2024-02-04T11:22:53;4.05;;;2.33;;
55031;SDS011;40928;51.076;7.950;2024-02-04T11:26:11;3.80;;;2.83;;
55031;SDS011;40928;51.076;7.950;2024-02-04T11:28:15;3.20;;;2.60;;
55031;SDS011;40928;51.076;7.950;2024-02-04T11:30:44;4.90;;;2.78;;
55031;SDS011;40928;51.076;7.950;2024-02-04T11:33:11;3.20;;;2.75;;
55031;SDS011;40928;51.076;7.950;2024-02-04T11:35:38;4.18;;;2.90;;
55031;SDS011;40928;51.076;7.950;2024-02-04T11:38:04;3.65;;;2.70;;
55031;SDS011;40928;51.076;7.950;2024-02-04T11:40:30;10.82;;;3.60;;
55031;SDS011;40928;51.076;7.950;2024-02-04T11:43:11;5.93;;;3.35;;
55031;SDS011;40928;51.076;7.950;2024-02-04T11:45:38;4.35;;;3.00;;
55031;SDS011;40928;51.076;7.950;2024-02-04T11:48:06;3.80;;;2.60;;
55031;SDS011;40928;51.076;7.950;2024-02-04T11:50:36;3.78;;;2.88;;
55031;SDS011;40928;51.076;7.950;2024-02-04T11:53:04;3.83;;;2.50;;
55031;SDS011;40928;51.076;7.950;2024-02-04T11:55:30;3.35;;;2.67;;
55031;SDS011;40928;51.076;7.950;2024-02-04T11:57:57;4.07;;;2.78;;
55031;SDS011;40928;51.076;7.950;2024-02-04T12:00:23;1.95;;;1.35;;
55031;SDS011;40928;51.076;7.950;2024-02-04T12:02:59;6.32;;;2.08;;
55031;SDS011;40928;51.076;7.950;2024-02-04T12:05:26;3.60;;;1.90;;
55031;SDS011;40928;51.076;7.950;2024-02-04T12:07:53;3.97;;;1.90;;
55031;SDS011;40928;51.076;7.950;2024-02-04T12:10:18;4.03;;;2.70;;
55031;SDS011;40928;51.076;7.950;2024-02-04T12:12:46;4.63;;;3.08;;
55031;SDS011;40928;51.076;7.950;2024-02-04T12:15:13;6.65;;;2.65;;
55031;SDS011;40928;51.076;7.950;2024-02-04T12:17:40;4.22;;;2.22;;
55031;SDS011;40928;51.076;7.950;2024-02-04T12:20:05;2.45;;;1.65;;
55031;SDS011;40928;51.076;7.950;2024-02-04T12:22:32;3.47;;;2.35;;
55031;SDS011;40928;51.076;7.950;2024-02-04T12:24:58;3.03;;;1.40;;
55031;SDS011;40928;51.076;7.950;2024-02-04T12:27:25;1.50;;;1.17;;
55031;SDS011;40928;51.076;7.950;2024-02-04T12:29:52;1.48;;;1.10;;
55031;SDS011;40928;51.076;7.950;2024-02-04T12:32:18;1.45;;;0.73;;
55031;SDS011;40928;51.076;7.950;2024-02-04T12:34:51;2.75;;;0.80;;
55031;SDS011;40928;51.076;7.950;2024-02-04T12:37:19;0.90;;;0.60;;
55031;SDS011;40928;51.076;7.950;2024-02-04T12:39:45;1.52;;;0.40;;
55031;SDS011;40928;51.076;7.950;2024-02-04T12:42:15;0.77;;;0.40;;
55031;SDS011;40928;51.076;7.950;2024-02-04T12:44:46;0.93;;;0.40;;
55031;SDS011;40928;51.076;7.950;2024-02-04T12:47:13;0.75;;;0.40;;
55031;SDS011;40928;51.076;7.950;2024-02-04T12:49:39;0.85;;;0.50;;
55031;SDS011;40928;51.076;7.950;2024-02-04T12:52:06;0.57;;;0.40;;
55031;SDS011;40928;51.076;7.950;2024-02-04T12:54:42;1.52;;;0.95;;
55031;SDS011;40928;51.076;7.950;2024-02-04T12:57:09;1.27;;;0.70;;
55031;SDS011;40928;51.076;7.950;2024-02-04T12:59:38;2.55;;;1.13;;
55031;SDS011;40928;51.076;7.950;2024-02-04T13:02:07;2.03;;;1.23;;
55031;SDS011;40928;51.076;7.950;2024-02-04T13:04:34;2.33;;;1.80;;
55031;SDS011;40928;51.076;7.950;2024-02-04T13:07:21;2.53;;;1.30;;
55031;SDS011;40928;51.076;7.950;2024-02-04T13:09:57;2.97;;;1.30;;
55031;SDS011;40928;51.076;7.950;2024-02-04T13:12:25;1.70;;;1.15;;
55031;SDS011;40928;51.076;7.950;2024-02-04T13:14:50;1.38;;;1.08;;
55031;SDS011;40928;51.076;7.950;2024-02-04T13:17:16;1.52;;;1.00;;
55031;SDS011;40928;51.076;7.950;2024-02-04T13:19:42;1.85;;;1.13;;
55031;SDS011;40928;51.076;7.950;2024-02-04T13:22:09;1.48;;;0.90;;
55031;SDS011;40928;51.076;7.950;2024-02-04T13:24:35;1.00;;;0.60;;
55031;SDS011;40928;51.076;7.950;2024-02-04T13:27:01;1.77;;;0.40;;
55031;SDS011;40928;51.076;7.950;2024-02-04T13:29:28;2.75;;;0.85;;
55031;SDS011;40928;51.076;7.950;2024-02-04T13:31:54;1.65;;;0.98;;
55031;SDS011;40928;51.076;7.950;2024-02-04T13:34:20;1.70;;;1.00;;
55031;SDS011;40928;51.076;7.950;2024-02-04T13:36:46;2.45;;;1.13;;
55031;SDS011;40928;51.076;7.950;2024-02-04T13:39:12;1.45;;;0.57;;
55031;SDS011;40928;51.076;7.950;2024-02-04T13:41:38;2.17;;;1.10;;
55031;SDS011;40928;51.076;7.950;2024-02-04T13:44:04;5.18;;;1.60;;
55031;SDS011;40928;51.076;7.950;2024-02-04T13:46:30;2.33;;;1.05;;
55031;SDS011;40928;51.076;7.950;2024-02-04T13:48:56;3.17;;;1.60;;
55031;SDS011;40928;51.076;7.950;2024-02-04T13:51:22;1.17;;;0.50;;
55031;SDS011;40928;51.076;7.950;2024-02-04T13:53:48;2.75;;;1.15;;
55031;SDS011;40928;51.076;7.950;2024-02-04T13:56:13;1.80;;;0.82;;
55031;SDS011;40928;51.076;7.950;2024-02-04T13:58:39;1.90;;;0.82;;
55031;SDS011;40928;51.076;7.950;2024-02-04T14:01:05;1.25;;;0.80;;
55031;SDS011;40928;51.076;7.950;2024-02-04T14:03:31;3.33;;;1.92;;
55031;SDS011;40928;51.076;7.950;2024-02-04T14:05:57;11.90;;;4.25;;
55031;SDS011;40928;51.076;7.950;2024-02-04T14:08:22;3.28;;;1.10;;
55031;SDS011;40928;51.076;7.950;2024-02-04T14:10:48;4.00;;;1.30;;
55031;SDS011;40928;51.076;7.950;2024-02-04T14:13:14;4.78;;;2.17;;
55031;SDS011;40928;51.076;7.950;2024-02-04T14:15:40;6.60;;;2.70;;
55031;SDS011;40928;51.076;7.950;2024-02-04T14:18:06;6.40;;;2.83;;
55031;SDS011;40928;51.076;7.950;2024-02-04T14:20:32;4.28;;;1.70;;
55031;SDS011;40928;51.076;7.950;2024-02-04T14:22:58;2.38;;;1.40;;
55031;SDS011;40928;51.076;7.950;2024-02-04T14:25:23;1.88;;;1.17;;
55031;SDS011;40928;51.076;7.950;2024-02-04T14:27:50;3.08;;;1.40;;
55031;SDS011;40928;51.076;7.950;2024-02-04T14:30:15;2.78;;;1.60;;
55031;SDS011;40928;51.076;7.950;2024-02-04T14:32:41;2.40;;;1.60;;
55031;SDS011;40928;51.076;7.950;2024-02-04T14:35:07;3.35;;;2.00;;
55031;SDS011;40928;51.076;7.950;2024-02-04T14:37:35;2.22;;;1.25;;
55031;SDS011;40928;51.076;7.950;2024-02-04T14:40:02;3.22;;;1.50;;
55031;SDS011;40928;51.076;7.950;2024-02-04T14:42:32;3.17;;;2.15;;
55031;SDS011;40928;51.076;7.950;2024-02-04T14:44:58;2.92;;;1.85;;
55031;SDS011;40928;51.076;7.950;2024-02-04T14:47:28;2.90;;;1.75;;
55031;SDS011;40928;51.076;7.950;2024-02-04T14:49:54;5.60;;;2.60;;
55031;SDS011;40928;51.076;7.950;2024-02-04T14:52:20;22.88;;;6.53;;